Time;durP1;ratioP1;P1;durP2;ratioP2;P2;SDS_P1;SDS_P2;PMS_P1;PMS_P2;Temp;Humidity;BMP_temperature;BMP_pressure;BME280_temperature;BME280_humidity;BME280_pressure;Samples;Min_cycle;Max_cycle;Signal;HPM_P1;HPM_P2
2021/04/18 00:01:46;;;;;;;4.90;2.00;;;;;;;6.37;65.14;101483.61;115586;1212;62228;-77
2021/04/18 00:04:13;;;;;;;3.15;1.15;;;;;;;6.35;65.36;101472.36;115745;1211;62517;-77
2021/04/18 00:06:40;;;;;;;4.07;1.60;;;;;;;6.35;65.34;101477.64;115790;1212;62845;-77
2021/04/18 00:09:12;;;;;;;2.90;1.35;;;;;;;6.35;65.64;101482.08;115547;1211;62558;-77
2021/04/18 00:11:40;;;;;;;3.87;1.80;;;;;;;6.34;65.94;101483.88;115571;1212;62961;-77
2021/04/18 00:14:07;;;;;;;6.10;2.10;;;;;;;6.32;66.13;101481.37;115822;1212;61869;-77
2021/04/18 00:16:35;;;;;;;3.73;1.47;;;;;;;6.29;66.76;101478.14;115803;1212;64071;-77
2021/04/18 00:19:03;;;;;;;3.60;1.60;;;;;;;6.23;66.84;101474.23;115560;1212;62234;-76
2021/04/18 00:21:30;;;;;;;3.70;1.80;;;;;;;6.18;66.74;101470.30;115809;1212;62148;-76
2021/04/18 00:23:57;;;;;;;3.03;1.70;;;;;;;6.11;67.15;101462.08;115571;1212;62725;-76
2021/04/18 00:26:24;;;;;;;5.73;1.97;;;;;;;6.06;66.78;101462.46;115630;1212;62250;-76
2021/04/18 00:28:51;;;;;;;2.70;1.15;;;;;;;6.01;67.62;101458.53;115615;1212;63081;-76
2021/04/18 00:31:17;;;;;;;4.55;1.90;;;;;;;5.98;67.06;101454.35;115545;1212;62545;-76
2021/04/18 00:33:44;;;;;;;5.07;1.40;;;;;;;5.95;67.16;101454.63;115779;1212;62587;-76
2021/04/18 00:36:20;;;;;;;2.90;1.20;;;;;;;5.95;67.40;101449.35;115567;1211;62634;-76
2021/04/18 00:38:46;;;;;;;3.37;1.70;;;;;;;5.95;67.85;101456.39;115752;1212;62641;-76
2021/04/18 00:41:13;;;;;;;4.17;1.70;;;;;;;5.95;66.73;101459.88;115793;1212;62584;-77
2021/04/18 00:43:43;;;;;;;5.40;2.50;;;;;;;5.97;67.39;101449.20;115824;1212;62527;-76
2021/04/18 00:46:11;;;;;;;8.03;2.33;;;;;;;6.00;67.16;101443.70;115804;1212;62385;-76
2021/04/18 00:48:42;;;;;;;4.45;2.15;;;;;;;6.02;67.25;101445.23;115593;1212;62296;-77
2021/04/18 00:51:11;;;;;;;7.47;2.40;;;;;;;6.06;67.95;101441.39;115572;1212;63956;-77
2021/04/18 00:53:38;;;;;;;2.60;1.70;;;;;;;6.06;67.61;101438.75;115574;1211;63344;-77
2021/04/18 00:56:06;;;;;;;4.77;1.33;;;;;;;6.07;67.80;101439.59;115784;1210;63554;-77
2021/04/18 00:58:34;;;;;;;3.40;1.80;;;;;;;6.08;67.94;101443.91;115584;1211;62263;-77
2021/04/18 01:01:02;;;;;;;2.73;1.47;;;;;;;6.07;67.45;101443.05;115616;1212;62355;-77
2021/04/18 01:03:28;;;;;;;5.55;1.70;;;;;;;6.07;68.03;101437.78;115593;1212;61819;-77
2021/04/18 01:05:55;;;;;;;3.53;1.70;;;;;;;6.09;67.73;101441.13;115546;1212;62980;-77
2021/04/18 01:08:21;;;;;;;3.40;2.00;;;;;;;6.11;67.97;101436.56;115563;1211;62576;-78
2021/04/18 01:10:48;;;;;;;3.37;1.70;;;;;;;6.11;67.10;101433.93;115744;1212;62131;-77
2021/04/18 01:13:15;;;;;;;2.55;1.40;;;;;;;6.14;67.04;101438.09;115837;1212;62195;-78
2021/04/18 01:15:41;;;;;;;4.13;2.00;;;;;;;6.15;67.24;101445.06;115770;1212;62159;-77
2021/04/18 01:18:08;;;;;;;4.37;1.53;;;;;;;6.15;66.98;101445.06;115613;1212;64698;-77
2021/04/18 01:20:35;;;;;;;8.05;2.10;;;;;;;6.16;66.90;101440.61;115540;1212;62484;-77
2021/04/18 01:23:02;;;;;;;3.60;1.65;;;;;;;6.15;67.42;101433.69;115579;1211;63961;-77
2021/04/18 01:25:28;;;;;;;2.50;1.43;;;;;;;6.16;68.06;101441.45;115783;1212;62240;-77
2021/04/18 01:27:56;;;;;;;4.90;2.10;;;;;;;6.17;67.88;101442.30;115641;1212;62984;-76
2021/04/18 01:30:28;;;;;;;5.95;2.70;;;;;;;6.17;67.98;101443.13;115508;1212;63546;-76
2021/04/18 01:32:58;;;;;;;5.20;2.15;;;;;;;6.20;68.15;101440.23;115721;1212;64202;-75
2021/04/18 01:35:26;;;;;;;3.50;1.90;;;;;;;6.20;68.03;101431.50;115600;1212;62000;-77
2021/04/18 01:37:53;;;;;;;5.27;1.90;;;;;;;6.21;67.98;101427.91;115771;1212;63311;-77
2021/04/18 01:40:23;;;;;;;5.20;1.60;;;;;;;6.18;68.13;101422.88;115598;1211;62203;-77
2021/04/18 01:42:50;;;;;;;5.40;1.67;;;;;;;6.17;68.37;101426.50;115603;1212;62357;-76
2021/04/18 01:45:19;;;;;;;3.50;1.40;;;;;;;6.16;68.45;101424.81;115804;1212;62322;-77
2021/04/18 01:47:46;;;;;;;4.10;2.00;;;;;;;6.12;68.92;101418.98;115560;1212;64197;-77
2021/04/18 01:50:17;;;;;;;4.30;1.40;;;;;;;6.11;68.63;101418.13;115818;1212;62376;-77
2021/04/18 01:52:45;;;;;;;4.05;1.70;;;;;;;6.08;68.73;101410.49;115617;1212;62377;-76
2021/04/18 01:55:13;;;;;;;4.40;1.90;;;;;;;6.07;68.73;101411.44;115545;1212;64140;-77
2021/04/18 01:57:39;;;;;;;4.15;2.40;;;;;;;6.07;68.57;101416.70;115558;1212;62395;-77
2021/04/18 02:00:10;;;;;;;2.33;1.43;;;;;;;6.10;69.69;101416.47;115809;1212;62686;-77
2021/04/18 02:02:37;;;;;;;6.40;2.60;;;;;;;6.13;69.14;101420.64;115737;1212;62333;-77
2021/04/18 02:05:04;;;;;;;7.53;2.13;;;;;;;6.13;68.21;101416.20;115601;1212;62254;-77
2021/04/18 02:07:32;;;;;;;6.70;2.45;;;;;;;6.15;68.75;101409.98;115827;1212;63153;-77
2021/04/18 02:09:58;;;;;;;5.40;2.40;;;;;;;6.13;68.41;101416.20;115572;1212;62347;-77
2021/04/18 02:12:25;;;;;;;3.13;1.70;;;;;;;6.13;69.53;101416.20;115781;1211;62395;-77
2021/04/18 02:14:52;;;;;;;4.40;2.30;;;;;;;6.12;68.87;101418.98;115764;1212;62302;-76
2021/04/18 02:17:19;;;;;;;6.60;2.90;;;;;;;6.12;69.21;101419.81;115781;1212;62339;-77
2021/04/18 02:19:45;;;;;;;4.95;1.80;;;;;;;6.10;69.59;101429.64;115586;1211;64195;-77
2021/04/18 02:22:12;;;;;;;4.60;2.20;;;;;;;6.11;68.32;101438.37;115790;1212;62332;-77
2021/04/18 02:24:38;;;;;;;3.20;1.27;;;;;;;6.13;68.76;101446.98;115562;1212;62662;-77
2021/04/18 02:27:05;;;;;;;4.10;1.57;;;;;;;6.12;69.05;101430.34;115784;1212;62382;-77
2021/04/18 02:29:32;;;;;;;3.97;1.60;;;;;;;6.11;69.06;101426.03;115723;1211;62242;-77
2021/04/18 02:31:58;;;;;;;2.43;1.57;;;;;;;6.12;68.41;101424.25;115587;1212;62253;-77
2021/04/18 02:34:25;;;;;;;4.67;2.27;;;;;;;6.12;68.83;101430.34;115581;1212;62390;-77
2021/04/18 02:36:51;;;;;;;6.03;2.80;;;;;;;6.15;68.63;101433.69;115634;1212;62619;-77
2021/04/18 02:39:18;;;;;;;4.27;2.50;;;;;;;6.14;69.25;101422.30;115863;1212;62508;-76
2021/04/18 02:41:45;;;;;;;4.30;2.05;;;;;;;6.12;68.97;101425.08;115614;1211;62405;-77
2021/04/18 02:44:11;;;;;;;7.30;1.80;;;;;;;6.11;69.12;101428.66;115548;1212;62354;-77
2021/04/18 02:46:39;;;;;;;6.07;1.90;;;;;;;6.10;68.70;101427.00;115544;1212;62366;-77
2021/04/18 02:49:06;;;;;;;6.40;2.43;;;;;;;6.10;69.40;101431.45;115797;1211;62418;-77
2021/04/18 02:51:37;;;;;;;5.05;2.10;;;;;;;6.09;69.01;101435.03;115566;1212;62222;-77
2021/04/18 02:54:03;;;;;;;5.95;2.50;;;;;;;6.08;68.89;101434.20;115843;1212;62539;-77
2021/04/18 02:56:30;;;;;;;5.40;1.85;;;;;;;6.08;68.53;101431.56;115740;1212;62560;-77
2021/04/18 02:58:56;;;;;;;5.20;2.00;;;;;;;6.08;69.30;101428.93;115597;1212;62604;-77
2021/04/18 03:01:23;;;;;;;6.37;1.83;;;;;;;6.05;69.54;101428.34;115615;1212;62929;-77
2021/04/18 03:03:50;;;;;;;4.65;2.30;;;;;;;6.04;68.83;101431.95;115614;1212;62234;-77
2021/04/18 03:06:17;;;;;;;7.73;2.70;;;;;;;6.04;69.00;101435.41;115809;1212;62257;-77
2021/04/18 03:08:44;;;;;;;6.80;2.57;;;;;;;6.05;68.71;101429.17;115808;1212;62450;-77
2021/04/18 03:11:11;;;;;;;4.73;2.73;;;;;;;6.07;68.75;101431.69;115561;1212;62440;-77
2021/04/18 03:13:39;;;;;;;4.13;1.90;;;;;;;6.08;68.93;101431.56;115781;1212;62087;-76
2021/04/18 03:16:07;;;;;;;3.70;1.60;;;;;;;6.08;69.03;101439.47;115811;1212;62339;-77
2021/04/18 03:18:33;;;;;;;4.30;2.00;;;;;;;6.08;69.14;101436.83;115594;1212;62215;-78
2021/04/18 03:21:00;;;;;;;8.50;2.35;;;;;;;6.10;69.32;101434.08;115810;1211;62178;-77
2021/04/18 03:23:26;;;;;;;3.85;1.55;;;;;;;6.10;69.38;101432.27;115790;1211;64202;-77
2021/04/18 03:25:53;;;;;;;6.57;1.97;;;;;;;6.09;69.73;101432.39;115832;1212;62139;-77
2021/04/18 03:28:20;;;;;;;2.90;1.60;;;;;;;6.10;69.22;101429.64;115603;1211;62391;-77
2021/04/18 03:30:47;;;;;;;2.95;1.90;;;;;;;6.11;69.80;101427.83;115583;1212;62451;-77
2021/04/18 03:33:14;;;;;;;6.40;2.40;;;;;;;6.12;69.75;101429.52;115627;1212;62294;-77
2021/04/18 03:35:41;;;;;;;3.50;1.50;;;;;;;6.12;70.35;101429.52;115746;1212;62350;-77
2021/04/18 03:38:09;;;;;;;5.03;2.07;;;;;;;6.10;69.68;101434.08;115625;1212;62036;-77
2021/04/18 03:40:39;;;;;;;3.53;1.63;;;;;;;6.09;70.31;101430.59;115729;1212;62167;-77
2021/04/18 03:43:06;;;;;;;7.50;2.00;;;;;;;6.06;70.61;101436.13;115772;1212;62207;-76
2021/04/18 03:45:32;;;;;;;6.00;2.40;;;;;;;6.05;70.76;101439.70;115575;1212;62991;-76
2021/04/18 03:47:59;;;;;;;4.50;1.97;;;;;;;6.03;70.36;101438.99;115813;1212;62420;-76
2021/04/18 03:50:26;;;;;;;3.25;1.70;;;;;;;6.03;70.86;101432.90;115552;1211;62395;-76
2021/04/18 03:52:55;;;;;;;11.07;2.10;;;;;;;6.00;71.04;101430.53;115708;1211;62374;-77
2021/04/18 03:55:24;;;;;;;2.90;1.70;;;;;;;5.96;71.57;101435.20;115827;1212;63147;-76
2021/04/18 03:57:51;;;;;;;4.50;2.00;;;;;;;5.95;71.37;101430.92;115639;1211;62934;-77
2021/04/18 04:00:18;;;;;;;5.60;1.85;;;;;;;5.92;71.43;101441.66;115855;1212;62807;-77
2021/04/18 04:02:45;;;;;;;3.70;2.00;;;;;;;5.89;71.96;101439.29;115618;1212;62600;-75
2021/04/18 04:05:12;;;;;;;4.13;2.20;;;;;;;5.86;72.59;101442.16;115808;1210;63178;-76
2021/04/18 04:07:38;;;;;;;4.63;2.13;;;;;;;5.84;71.93;101438.81;115556;1212;62621;-76
2021/04/18 04:10:05;;;;;;;5.33;2.30;;;;;;;5.82;71.99;101438.95;115773;1212;62717;-76
2021/04/18 04:12:33;;;;;;;4.40;1.90;;;;;;;5.81;72.47;101439.91;115580;1212;62491;-74
2021/04/18 04:14:59;;;;;;;6.60;3.07;;;;;;;5.79;72.48;101444.45;115806;1212;62169;-75
2021/04/18 04:17:26;;;;;;;5.65;2.05;;;;;;;5.79;72.08;101435.73;115830;1212;62386;-75
2021/04/18 04:19:53;;;;;;;6.80;2.43;;;;;;;5.79;73.14;101441.00;115614;1212;62631;-76
2021/04/18 04:22:20;;;;;;;4.67;2.47;;;;;;;5.80;72.59;101447.92;115627;1211;63168;-75
2021/04/18 04:24:48;;;;;;;4.37;2.53;;;;;;;5.79;72.41;101444.45;115840;1212;62469;-75
2021/04/18 04:27:14;;;;;;;4.55;2.50;;;;;;;5.82;73.24;101444.23;115607;1211;62163;-75
2021/04/18 04:29:42;;;;;;;8.20;3.40;;;;;;;5.82;72.77;101438.95;115613;1212;62448;-75
2021/04/18 04:32:08;;;;;;;5.33;2.80;;;;;;;5.83;73.45;101440.61;115590;1212;62271;-75
2021/04/18 04:34:35;;;;;;;5.17;2.87;;;;;;;5.86;73.01;101444.78;115590;1212;62301;-75
2021/04/18 04:37:02;;;;;;;5.87;2.23;;;;;;;5.88;73.10;101442.86;115556;1212;62316;-75
2021/04/18 04:39:28;;;;;;;3.70;1.93;;;;;;;5.88;73.15;101451.59;115617;1212;62840;-75
2021/04/18 04:41:55;;;;;;;5.60;2.75;;;;;;;5.89;73.07;101441.92;115817;1212;62377;-75
2021/04/18 04:44:21;;;;;;;7.40;2.40;;;;;;;5.90;73.64;101441.77;115697;1212;62378;-75
2021/04/18 04:46:48;;;;;;;5.35;2.05;;;;;;;5.90;73.89;101443.58;115756;1212;62241;-77
2021/04/18 04:49:15;;;;;;;4.47;2.10;;;;;;;5.92;73.62;101444.28;115562;1212;62308;-74
2021/04/18 04:51:41;;;;;;;8.10;3.30;;;;;;;5.95;74.20;101440.59;115835;1212;62120;-75
2021/04/18 04:54:10;;;;;;;8.10;3.40;;;;;;;5.97;74.00;101442.16;115709;1211;64048;-75
2021/04/18 04:56:37;;;;;;;8.80;3.60;;;;;;;6.01;73.51;101442.72;115571;1212;62244;-75
2021/04/18 04:59:03;;;;;;;5.45;2.90;;;;;;;6.03;74.01;101441.63;115579;1212;62362;-75
2021/04/18 05:01:33;;;;;;;7.50;3.50;;;;;;;6.05;73.80;101447.61;115698;1211;62373;-74
2021/04/18 05:04:00;;;;;;;4.60;2.70;;;;;;;6.06;73.75;101448.47;115765;1212;62239;-75
2021/04/18 05:06:26;;;;;;;6.33;2.67;;;;;;;6.06;74.00;101440.56;115618;1212;62357;-75
2021/04/18 05:08:53;;;;;;;6.40;2.50;;;;;;;6.06;74.22;101436.13;115644;1212;62308;-75
2021/04/18 05:11:19;;;;;;;3.50;2.23;;;;;;;6.07;74.67;101443.05;115793;1212;63030;-75
2021/04/18 05:13:46;;;;;;;5.43;2.50;;;;;;;6.07;74.29;101456.22;115627;1212;62154;-75
2021/04/18 05:16:12;;;;;;;6.90;3.40;;;;;;;6.07;74.16;101448.31;115587;1211;63357;-75
2021/04/18 05:18:44;;;;;;;6.60;2.73;;;;;;;6.10;74.44;101448.08;115776;1212;62298;-75
2021/04/18 05:21:14;;;;;;;6.70;3.10;;;;;;;6.11;74.33;101454.17;115578;1212;62179;-75
2021/04/18 05:23:40;;;;;;;5.40;2.63;;;;;;;6.14;74.79;101453.91;115606;1211;62917;-75
2021/04/18 05:26:08;;;;;;;5.83;3.00;;;;;;;6.16;74.85;101456.42;115598;1211;62480;-75
2021/04/18 05:28:36;;;;;;;6.63;3.30;;;;;;;6.18;74.55;101457.13;115440;1212;64321;-75
2021/04/18 05:31:26;;;;;;;6.50;3.10;;;;;;;6.19;74.07;101453.55;114281;1211;64448;-76
2021/04/18 05:33:54;;;;;;;7.17;3.23;;;;;;;6.19;74.31;101451.75;114423;1212;64394;-79
2021/04/18 05:36:25;;;;;;;14.03;3.83;;;;;;;6.20;74.20;101442.03;114734;1212;63281;-75
2021/04/18 05:38:51;;;;;;;6.73;3.13;;;;;;;6.18;74.66;101446.59;115513;1211;62250;-75
2021/04/18 05:41:18;;;;;;;9.43;4.00;;;;;;;6.17;74.71;101453.67;115540;1212;62411;-75
2021/04/18 05:43:48;;;;;;;8.10;3.70;;;;;;;6.17;74.60;101452.84;115733;1211;62294;-75
2021/04/18 05:46:16;;;;;;;7.65;3.60;;;;;;;6.19;74.37;101458.82;115582;1212;62214;-75
2021/04/18 05:48:43;;;;;;;7.50;3.80;;;;;;;6.19;75.03;101450.91;115554;1212;62512;-75
2021/04/18 05:51:10;;;;;;;7.05;3.70;;;;;;;6.20;75.06;101453.40;115745;1212;63021;-75
2021/04/18 05:53:36;;;;;;;9.10;4.20;;;;;;;6.26;75.09;101452.06;115593;1212;62363;-74
2021/04/18 05:56:04;;;;;;;13.40;4.30;;;;;;;6.37;74.84;101453.80;115731;1212;62378;-76
2021/04/18 05:58:30;;;;;;;8.40;4.40;;;;;;;6.49;74.83;101443.06;115591;1212;62689;-76
2021/04/18 06:00:57;;;;;;;10.03;4.07;;;;;;;6.68;74.42;101446.77;115775;1211;62373;-76
2021/04/18 06:03:24;;;;;;;9.40;4.00;;;;;;;6.87;74.25;101456.58;115787;1211;62496;-75
2021/04/18 06:05:51;;;;;;;8.35;3.70;;;;;;;7.06;74.24;101450.55;115800;1212;62257;-76
2021/04/18 06:08:17;;;;;;;8.87;3.83;;;;;;;7.28;74.04;101444.22;115561;1212;62442;-75
2021/04/18 06:10:44;;;;;;;6.20;3.65;;;;;;;7.47;73.57;101446.91;115795;1212;62398;-77
2021/04/18 06:13:10;;;;;;;12.55;4.60;;;;;;;7.71;73.03;101446.54;115551;1211;62261;-76
2021/04/18 06:15:37;;;;;;;9.25;4.05;;;;;;;7.93;72.51;101444.59;115791;1212;62461;-75
2021/04/18 06:18:04;;;;;;;10.80;4.60;;;;;;;8.07;71.91;101448.61;115784;1211;62281;-75
2021/04/18 06:20:31;;;;;;;8.85;4.80;;;;;;;8.20;71.25;101446.50;115796;1212;62964;-74
2021/04/18 06:22:57;;;;;;;9.05;5.30;;;;;;;8.28;70.75;101453.74;115595;1212;62393;-75
2021/04/18 06:25:24;;;;;;;7.95;4.55;;;;;;;8.30;70.37;101457.08;115822;1212;62324;-76
2021/04/18 06:27:52;;;;;;;8.77;4.83;;;;;;;8.36;70.70;101461.80;115783;1212;62355;-76
2021/04/18 06:30:19;;;;;;;7.90;4.47;;;;;;;8.39;70.09;101453.58;115595;1212;62564;-76
2021/04/18 06:32:46;;;;;;;11.70;6.03;;;;;;;8.37;69.55;101459.03;115776;1212;62487;-76
2021/04/18 06:35:13;;;;;;;10.25;5.70;;;;;;;8.41;69.98;101461.41;115602;1212;62433;-76
2021/04/18 06:37:40;;;;;;;7.50;3.30;;;;;;;8.45;70.15;101460.98;115561;1212;63709;-76
2021/04/18 06:40:07;;;;;;;10.70;5.65;;;;;;;8.62;70.31;101450.65;115540;1212;62295;-75
2021/04/18 06:42:38;;;;;;;11.40;4.90;;;;;;;8.78;69.33;101445.59;115848;1212;62436;-76
2021/04/18 06:45:10;;;;;;;8.70;4.20;;;;;;;8.91;68.62;101454.03;115541;1212;62244;-75
2021/04/18 06:47:40;;;;;;;9.33;5.27;;;;;;;9.01;68.67;101453.14;115573;1211;62088;-76
2021/04/18 06:50:09;;;;;;;10.60;5.20;;;;;;;9.07;68.36;101449.92;115764;1212;62176;-77
2021/04/18 06:52:37;;;;;;;5.20;3.87;;;;;;;9.14;68.34;101451.02;115765;1212;62212;-77
2021/04/18 06:55:05;;;;;;;8.50;4.25;;;;;;;9.23;67.91;101444.83;115562;1212;63152;-77
2021/04/18 06:57:33;;;;;;;6.90;4.30;;;;;;;9.22;67.64;101451.09;115762;1212;62140;-75
2021/04/18 07:00:00;;;;;;;8.50;4.80;;;;;;;9.23;67.28;101441.36;115762;1212;62856;-76
2021/04/18 07:02:30;;;;;;;6.85;4.00;;;;;;;9.17;67.74;101440.13;115586;1212;63283;-76
2021/04/18 07:05:02;;;;;;;9.90;4.83;;;;;;;9.20;66.98;101434.52;115756;1212;63191;-75
2021/04/18 07:07:35;;;;;;;8.40;4.10;;;;;;;9.22;67.41;101437.03;115749;1212;62799;-74
2021/04/18 07:10:03;;;;;;;11.50;5.75;;;;;;;9.21;67.46;101430.91;115858;1212;62582;-76
2021/04/18 07:12:31;;;;;;;10.05;5.00;;;;;;;9.27;66.96;101430.31;115626;1211;62247;-74
2021/04/18 07:14:59;;;;;;;7.60;3.65;;;;;;;9.18;66.38;101439.16;115608;1212;62991;-75
2021/04/18 07:17:26;;;;;;;10.25;5.70;;;;;;;9.24;67.15;101435.89;115777;1212;62343;-75
2021/04/18 07:20:12;;;;;;;14.20;6.13;;;;;;;9.42;66.48;101448.36;115847;1211;62360;-75
2021/04/18 07:22:39;;;;;;;;;;;;;;;9.64;65.88;101442.61;115815;1216;62519;-76
2021/04/18 07:25:06;;;;;;;11.30;6.10;;;;;;;9.77;65.83;101443.06;115822;1211;62348;-76
2021/04/18 07:27:47;;;;;;;10.43;4.97;;;;;;;9.83;64.80;101446.94;115645;1212;62878;-76
2021/04/18 07:30:17;;;;;;;11.67;6.50;;;;;;;9.87;65.45;101445.66;115766;1211;62384;-74
2021/04/18 07:32:44;;;;;;;8.60;4.93;;;;;;;9.86;65.02;101436.05;115607;1212;62385;-76
2021/04/18 07:35:50;;;;;;;8.63;5.07;;;;;;;9.90;65.31;101441.86;115799;1212;62354;-76
2021/04/18 07:38:28;;;;;;;11.17;4.77;;;;;;;9.99;65.34;101440.97;115401;1215;62626;-75
2021/04/18 07:41:16;;;;;;;8.80;4.55;;;;;;;10.07;64.54;101445.48;115259;1214;62720;-75
2021/04/18 07:43:44;;;;;;;9.10;5.03;;;;;;;10.09;64.17;101446.16;115458;1212;62278;-75
2021/04/18 07:46:13;;;;;;;10.50;5.50;;;;;;;10.18;64.29;101446.09;115801;1211;63737;-75
2021/04/18 07:48:40;;;;;;;10.30;5.60;;;;;;;10.34;63.99;101441.92;115561;1212;62707;-75
2021/04/18 07:51:06;;;;;;;15.10;10.50;;;;;;;10.46;63.24;101443.34;115725;1212;62425;-75
2021/04/18 07:53:33;;;;;;;11.35;6.95;;;;;;;10.50;63.16;101436.73;115632;1211;62222;-75
2021/04/18 07:56:01;;;;;;;9.30;5.05;;;;;;;10.53;62.57;101439.06;115544;1211;63682;-76
2021/04/18 07:58:28;;;;;;;12.20;5.67;;;;;;;10.57;62.96;101439.59;115601;1211;62294;-75
2021/04/18 08:00:55;;;;;;;9.60;4.30;;;;;;;10.65;63.09;101436.98;115302;1211;62511;-75
2021/04/18 08:03:22;;;;;;;10.40;5.03;;;;;;;10.67;62.78;101428.84;115552;1212;62556;-76
2021/04/18 08:05:51;;;;;;;9.97;4.93;;;;;;;10.67;62.74;101436.81;115592;1212;62421;-76
2021/04/18 08:08:18;;;;;;;10.95;6.00;;;;;;;10.52;62.06;101425.94;115547;1212;62243;-75
2021/04/18 08:10:47;;;;;;;10.57;6.10;;;;;;;10.46;63.33;101432.72;115576;1212;62633;-75
2021/04/18 08:13:18;;;;;;;8.03;4.17;;;;;;;10.48;62.58;101429.92;115741;1212;64119;-73
2021/04/18 08:16:04;;;;;;;7.75;4.20;;;;;;;10.61;62.59;101433.80;115509;1212;62697;-75
2021/04/18 08:18:40;;;;;;;10.03;5.90;;;;;;;10.74;62.35;101436.03;115770;1212;62737;-76
2021/04/18 08:21:41;;;;;;;10.20;4.27;;;;;;;10.81;62.05;101430.92;115476;1212;62632;-74
2021/04/18 08:24:27;;;;;;;10.97;5.77;;;;;;;10.79;62.29;101427.59;115471;1212;62488;-74
2021/04/18 08:27:05;;;;;;;11.10;5.80;;;;;;;10.85;61.93;101426.14;115455;1211;63343;-76
2021/04/18 08:29:35;;;;;;;9.73;5.40;;;;;;;10.99;61.78;101423.72;115547;1211;61923;-76
2021/04/18 08:32:04;;;;;;;12.33;6.87;;;;;;;11.10;61.60;101419.11;115324;1212;63001;-76
2021/04/18 08:34:34;;;;;;;7.93;4.23;;;;;;;11.15;61.68;101412.31;115463;1212;62676;-76
2021/04/18 08:37:03;;;;;;;9.53;4.93;;;;;;;11.22;61.25;101423.14;115634;1211;64189;-76
2021/04/18 08:39:31;;;;;;;6.77;4.37;;;;;;;11.37;61.06;101426.84;115558;1211;62835;-77
2021/04/18 08:42:00;;;;;;;9.10;5.33;;;;;;;11.50;61.32;101420.23;115713;1212;64048;-76
2021/04/18 08:44:36;;;;;;;10.25;4.70;;;;;;;11.65;60.72;101423.90;115711;1212;63332;-76
2021/04/18 08:47:11;;;;;;;8.90;4.43;;;;;;;11.73;59.69;101415.94;115650;1212;62497;-75
2021/04/18 08:49:45;;;;;;;5.80;2.83;;;;;;;11.79;59.91;101430.38;115529;1212;62202;-75
2021/04/18 08:52:11;;;;;;;6.23;4.20;;;;;;;11.90;60.31;101429.25;115916;1212;62153;-75
2021/04/18 08:54:41;;;;;;;10.15;4.90;;;;;;;12.02;60.06;101428.75;115820;1212;62673;-75
2021/04/18 08:57:11;;;;;;;8.73;6.13;;;;;;;12.15;59.56;101430.91;115649;1212;62819;-75
2021/04/18 08:59:39;;;;;;;8.83;6.07;;;;;;;12.25;59.49;101425.42;115817;1211;62487;-75
2021/04/18 09:02:11;;;;;;;9.77;5.47;;;;;;;12.42;59.51;101427.06;115608;1212;62064;-75
2021/04/18 09:04:48;;;;;;;7.90;4.83;;;;;;;12.57;59.36;101421.05;115778;1212;63046;-75
2021/04/18 09:07:21;;;;;;;10.15;5.15;;;;;;;12.71;58.98;101428.34;115738;1212;62826;-75
2021/04/18 09:09:48;;;;;;;6.50;4.20;;;;;;;12.92;58.27;101426.92;115302;1211;63071;-74
2021/04/18 09:12:17;;;;;;;10.97;6.27;;;;;;;13.11;58.24;101415.88;115818;1212;62265;-75
2021/04/18 09:14:47;;;;;;;8.03;4.77;;;;;;;13.29;56.81;101428.14;115244;1212;64244;-75
2021/04/18 09:17:25;;;;;;;9.60;6.50;;;;;;;13.23;55.59;101417.13;115814;1212;62368;-74
2021/04/18 09:19:55;;;;;;;9.05;5.05;;;;;;;13.15;56.00;101417.16;115633;1212;62195;-75
2021/04/18 09:22:28;;;;;;;8.70;4.63;;;;;;;13.03;56.14;101422.06;115814;1211;62199;-75
2021/04/18 09:24:58;;;;;;;7.50;4.70;;;;;;;12.90;56.30;101420.94;115789;1212;62329;-75
2021/04/18 09:27:30;;;;;;;9.70;5.60;;;;;;;12.76;56.85;101415.33;115852;1212;62780;-74
2021/04/18 09:29:59;;;;;;;6.53;3.93;;;;;;;12.82;55.89;101417.31;115611;1212;63032;-74
2021/04/18 09:32:35;;;;;;;9.30;4.50;;;;;;;12.83;56.55;101415.47;115770;1211;63039;-75
2021/04/18 09:35:03;;;;;;;7.50;4.40;;;;;;;12.90;56.90;101419.13;115836;1212;63444;-74
2021/04/18 09:37:39;;;;;;;9.45;5.00;;;;;;;13.04;56.71;101421.04;115619;1211;62460;-74
2021/04/18 09:40:16;;;;;;;12.13;5.50;;;;;;;13.18;55.70;101416.00;115792;1211;62222;-74
2021/04/18 09:42:47;;;;;;;10.27;5.50;;;;;;;13.34;56.01;101415.11;115619;1211;61758;-74
2021/04/18 09:45:40;;;;;;;8.80;5.15;;;;;;;13.51;55.32;101421.17;115777;1212;62250;-75
2021/04/18 09:48:13;;;;;;;9.37;5.23;;;;;;;13.84;54.78;101417.27;115798;1211;63091;-75
2021/04/18 09:50:41;;;;;;;8.35;5.30;;;;;;;14.01;55.27;101415.30;115592;1212;62285;-74
2021/04/18 09:53:18;;;;;;;9.30;5.70;;;;;;;14.27;54.06;101416.73;115622;1212;62351;-75
2021/04/18 09:56:07;;;;;;;7.30;4.47;;;;;;;14.62;55.21;101423.25;115584;1212;62684;-75
2021/04/18 09:58:35;;;;;;;8.77;4.70;;;;;;;14.87;52.02;101406.92;115569;1212;62357;-75
2021/04/18 10:01:04;;;;;;;7.87;4.80;;;;;;;14.95;51.84;101419.37;115796;1212;62552;-76
2021/04/18 10:03:34;;;;;;;7.10;4.80;;;;;;;14.97;52.03;101418.16;115634;1211;62583;-75
2021/04/18 10:06:03;;;;;;;7.30;4.40;;;;;;;15.17;52.44;101413.05;115804;1211;62373;-75
2021/04/18 10:08:35;;;;;;;9.37;4.47;;;;;;;15.33;51.19;101406.66;115791;1211;62702;-75
2021/04/18 10:11:08;;;;;;;7.25;4.10;;;;;;;15.54;51.32;101399.69;115618;1212;62209;-75
2021/04/18 10:13:56;;;;;;;9.55;4.60;;;;;;;15.70;50.11;101412.79;115558;1212;62703;-76
2021/04/18 10:16:31;;;;;;;8.33;5.30;;;;;;;15.59;50.08;101400.75;115851;1212;62522;-75
2021/04/18 10:19:18;;;;;;;7.30;4.20;;;;;;;15.70;49.67;101396.73;115789;1212;62322;-75
2021/04/18 10:22:07;;;;;;;8.57;6.07;;;;;;;15.83;49.13;101396.92;115807;1212;62303;-75
2021/04/18 10:24:44;;;;;;;9.00;5.20;;;;;;;15.97;49.78;101397.02;115603;1212;62250;-76
2021/04/18 10:27:13;;;;;;;6.25;4.05;;;;;;;16.07;48.83;101395.66;115602;1212;62571;-76
2021/04/18 10:29:42;;;;;;;10.20;4.70;;;;;;;15.99;48.49;101389.63;115824;1212;62108;-76
2021/04/18 10:32:14;;;;;;;7.60;5.77;;;;;;;15.88;48.90;101390.98;115633;1212;62695;-75
2021/04/18 10:34:41;;;;;;;8.80;4.53;;;;;;;15.74;49.27;101389.20;115847;1212;62425;-75
2021/04/18 10:37:08;;;;;;;9.70;5.20;;;;;;;15.68;50.25;101388.08;115582;1212;62152;-76
2021/04/18 10:39:35;;;;;;;8.27;5.00;;;;;;;15.85;50.06;101383.32;115597;1212;63224;-75
2021/04/18 10:42:02;;;;;;;10.33;5.83;;;;;;;15.80;49.73;101383.91;115780;1212;62298;-75
2021/04/18 10:44:29;;;;;;;9.25;5.20;;;;;;;15.87;50.26;101376.78;115623;1212;62901;-75
2021/04/18 10:47:01;;;;;;;7.20;4.00;;;;;;;16.02;50.57;101381.20;115845;1212;62292;-76
2021/04/18 10:49:28;;;;;;;11.23;6.80;;;;;;;16.02;48.70;101378.52;115826;1212;62319;-76
2021/04/18 10:51:58;;;;;;;9.37;4.87;;;;;;;15.97;48.90;101376.44;115543;1211;62410;-75
2021/04/18 10:54:26;;;;;;;6.73;4.47;;;;;;;15.93;48.77;101380.52;115541;1212;64527;-75
2021/04/18 10:56:53;;;;;;;6.75;4.65;;;;;;;15.99;49.29;101378.92;115776;1212;62781;-75
2021/04/18 10:59:21;;;;;;;7.20;4.30;;;;;;;16.29;50.69;101376.87;115585;1212;62263;-75
2021/04/18 11:01:49;;;;;;;9.40;5.20;;;;;;;16.59;49.13;101379.31;115851;1212;62390;-75
2021/04/18 11:04:16;;;;;;;7.30;4.15;;;;;;;16.93;48.15;101373.11;115512;1212;62216;-75
2021/04/18 11:06:43;;;;;;;10.20;5.63;;;;;;;17.10;47.99;101382.44;115774;1212;62558;-76
2021/04/18 11:09:10;;;;;;;10.40;6.90;;;;;;;17.23;46.67;101373.61;115571;1211;64651;-75
2021/04/18 11:11:37;;;;;;;6.80;4.30;;;;;;;17.14;45.26;101363.29;115770;1211;62362;-76
2021/04/18 11:14:05;;;;;;;8.70;5.05;;;;;;;17.05;46.22;101379.55;115560;1212;62609;-76
2021/04/18 11:16:32;;;;;;;8.40;4.33;;;;;;;17.10;47.17;101365.53;115498;1212;62992;-75
2021/04/18 11:19:00;;;;;;;8.07;3.67;;;;;;;17.20;47.06;101362.48;115583;1211;62327;-76
2021/04/18 11:21:28;;;;;;;8.50;5.20;;;;;;;17.31;46.00;101370.74;115596;1212;62590;-77
2021/04/18 11:23:56;;;;;;;6.40;4.20;;;;;;;17.47;46.61;101374.09;115615;1212;62285;-76
2021/04/18 11:26:25;;;;;;;9.30;4.73;;;;;;;17.69;45.59;101375.55;115601;1212;62348;-76
2021/04/18 11:28:52;;;;;;;11.13;4.83;;;;;;;17.93;45.60;101376.81;115792;1212;62895;-77
2021/04/18 11:31:19;;;;;;;7.47;4.30;;;;;;;18.10;45.28;101371.03;115575;1212;62567;-76